Terminal Aerodrome Forecast
Issued by NWS

Home | Current Version | Previous Version | Graphics & Text | Print | Product List | Glossary On
Versions: 1 2 3 4 5 6 7 8 9 10 11 12 13 14 15 16 17 18 19 20 21 22 23 24 25 26
545
FTUS43 KBIS 252012 AAA
TAFDIK
TAF AMD
KDIK 252012Z 2520/2618 24004KT P6SM -SHRA SCT025 OVC035
      TEMPO 2520/2521 5SM -SHRA BR BKN025 OVC035
     FM252100 10006KT P6SM SCT025 BKN030
     FM260600 16004KT P6SM SCT020 BKN035
     FM260800 17004KT P6SM VCFG SCT025 BKN035
     FM261700 24005KT P6SM FEW030 SCT035=

USA.gov is the U.S. government's official web portal to all federal, state and local government web resources and services.